createdAt,value
2023-04-18T00:00:37.311Z,-0.67
2023-04-18T00:03:05.444Z,-0.61
2023-04-18T00:05:33.387Z,-0.55
2023-04-18T00:08:01.467Z,-0.59
2023-04-18T00:10:29.280Z,-0.58
2023-04-18T00:13:00.437Z,-0.62
2023-04-18T00:15:29.374Z,-0.67
2023-04-18T00:17:57.518Z,-0.64
2023-04-18T00:20:26.924Z,-0.62
2023-04-18T00:22:55.095Z,-0.63
2023-04-18T00:25:23.018Z,-0.59
2023-04-18T00:27:50.914Z,-0.57
2023-04-18T00:30:20.268Z,-0.60
2023-04-18T00:32:48.640Z,-0.60
2023-04-18T00:35:16.602Z,-0.54
2023-04-18T00:37:44.428Z,-0.48
2023-04-18T00:40:12.875Z,-0.50
2023-04-18T00:42:40.640Z,-0.53
2023-04-18T00:45:09.481Z,-0.47
2023-04-18T00:47:38.756Z,-0.48
2023-04-18T00:50:07.899Z,-0.47
2023-04-18T00:52:36.128Z,-0.49
2023-04-18T00:55:05.079Z,-0.45
2023-04-18T00:57:32.925Z,-0.47
2023-04-18T01:00:01.004Z,-0.47
2023-04-18T01:02:31.356Z,-0.44
2023-04-18T01:05:00.642Z,-0.47
2023-04-18T01:07:28.578Z,-0.48
2023-04-18T01:09:56.415Z,-0.53
2023-04-18T01:12:24.242Z,-0.54
2023-04-18T01:14:52.094Z,-0.53
2023-04-18T01:17:20.201Z,-0.51
2023-04-18T01:19:47.994Z,-0.47
2023-04-18T01:22:18.390Z,-0.46
2023-04-18T01:24:47.675Z,-0.48
2023-04-18T01:27:15.544Z,-0.25
2023-04-18T01:29:43.314Z,-0.18
2023-04-18T01:32:11.249Z,-0.16
2023-04-18T01:34:38.991Z,-0.22
2023-04-18T01:37:07.145Z,-0.33
2023-04-18T01:39:35.011Z,-0.60
2023-04-18T01:42:04.252Z,-0.42
2023-04-18T01:44:32.060Z,-0.46
2023-04-18T01:46:59.861Z,-0.54
2023-04-18T01:49:27.770Z,-0.52
2023-04-18T01:51:55.675Z,-0.52
2023-04-18T01:54:23.590Z,-0.48
2023-04-18T01:56:51.349Z,-0.54
2023-04-18T01:59:20.521Z,-0.60
2023-04-18T02:01:48.390Z,-0.69
2023-04-18T02:04:16.360Z,-0.69
2023-04-18T02:06:44.346Z,-0.71
2023-04-18T02:09:12.440Z,-0.78
2023-04-18T02:11:40.296Z,-0.78
2023-04-18T02:14:08.037Z,-0.82
2023-04-18T02:16:37.296Z,-0.89
2023-04-18T02:19:06.285Z,-0.82
2023-04-18T02:21:34.142Z,-0.76
2023-04-18T02:24:02.064Z,-0.79
2023-04-18T02:26:30.010Z,-0.82
2023-04-18T02:28:58.640Z,-0.71
2023-04-18T02:31:27.035Z,-0.70
2023-04-18T02:33:56.510Z,-0.76
2023-04-18T02:36:26.108Z,-0.83
2023-04-18T02:38:54.012Z,-0.77
2023-04-18T02:41:21.910Z,-0.87
2023-04-18T02:43:49.764Z,-0.94
2023-04-18T02:46:17.599Z,-0.83
2023-04-18T02:48:45.451Z,-0.69
2023-04-18T02:51:14.602Z,-0.69
2023-04-18T02:53:42.610Z,-0.64
2023-04-18T02:56:10.608Z,-0.71
2023-04-18T02:58:38.408Z,-0.72
2023-04-18T03:01:06.417Z,-0.76
2023-04-18T03:03:34.252Z,-0.74
2023-04-18T03:06:02.071Z,-0.73
2023-04-18T03:08:31.323Z,-0.64
2023-04-18T03:10:59.126Z,-0.61
2023-04-18T03:13:27.101Z,-0.60
2023-04-18T03:15:55.326Z,-0.52
2023-04-18T03:18:23.088Z,-0.52
2023-04-18T03:20:51.312Z,-0.67
2023-04-18T03:23:19.085Z,-0.49
2023-04-18T03:25:48.237Z,-0.44
2023-04-18T03:28:16.035Z,-0.43
2023-04-18T03:30:43.937Z,-0.40
2023-04-18T03:33:11.881Z,-0.43
2023-04-18T03:35:39.677Z,-0.45
2023-04-18T03:38:07.492Z,-0.44
2023-04-18T03:40:35.437Z,-0.41
2023-04-18T03:43:04.660Z,-0.37
2023-04-18T03:45:32.858Z,-0.35
2023-04-18T03:48:00.666Z,-0.33
2023-04-18T03:50:28.573Z,-0.47
2023-04-18T03:52:56.712Z,-0.17
2023-04-18T03:55:24.607Z,-0.06
2023-04-18T03:57:52.519Z,0.06
2023-04-18T04:00:21.778Z,0.15
2023-04-18T04:02:49.585Z,0.13
2023-04-18T04:05:17.580Z,0.23
2023-04-18T04:07:45.438Z,0.28
2023-04-18T04:10:13.325Z,0.36
2023-04-18T04:12:41.132Z,0.40
2023-04-18T04:15:09.740Z,0.56
2023-04-18T04:17:38.964Z,0.61
2023-04-18T04:20:08.051Z,0.69
2023-04-18T04:22:36.638Z,0.81
2023-04-18T04:25:05.604Z,0.90
2023-04-18T04:27:34.050Z,0.96
2023-04-18T04:30:02.676Z,1.00
2023-04-18T04:32:30.655Z,1.05
2023-04-18T04:34:59.729Z,1.08
2023-04-18T04:37:28.599Z,1.13
2023-04-18T04:39:56.963Z,1.19
2023-04-18T04:42:26.180Z,1.32
2023-04-18T04:44:54.505Z,1.43
2023-04-18T04:47:22.444Z,1.52
2023-04-18T04:49:50.419Z,1.63
2023-04-18T04:52:19.967Z,1.72
2023-04-18T04:54:48.178Z,1.81
2023-04-18T04:57:16.249Z,1.83
2023-04-18T04:59:44.309Z,2.01
2023-04-18T05:02:12.555Z,2.18
2023-04-18T05:04:40.805Z,2.07
2023-04-18T05:07:08.935Z,2.48
2023-04-18T05:09:38.162Z,2.63
2023-04-18T05:12:06.389Z,2.74
2023-04-18T05:14:34.132Z,2.88
2023-04-18T05:17:02.709Z,2.97
2023-04-18T05:19:30.614Z,3.15
2023-04-18T05:21:58.396Z,3.36
2023-04-18T05:24:26.314Z,3.62
2023-04-18T05:26:56.007Z,3.86
2023-04-18T05:29:23.823Z,4.31
2023-04-18T05:31:51.642Z,4.52
2023-04-18T05:34:19.451Z,5.15
2023-04-18T05:36:48.861Z,5.60
2023-04-18T05:39:16.780Z,6.13
2023-04-18T05:41:44.589Z,6.66
2023-04-18T05:44:18.192Z,7.02
2023-04-18T05:46:46.649Z,7.46
2023-04-18T05:49:14.710Z,7.93
2023-04-18T05:51:42.593Z,8.20
2023-04-18T05:54:10.470Z,8.59
2023-04-18T05:56:38.397Z,8.91
2023-04-18T05:59:06.290Z,8.83
2023-04-18T06:01:35.414Z,9.15
2023-04-18T06:04:03.473Z,9.48
2023-04-18T06:06:31.527Z,9.69
2023-04-18T06:08:59.447Z,9.69
2023-04-18T06:11:27.349Z,9.92
2023-04-18T06:13:56.089Z,10.14
2023-04-18T06:16:24.172Z,10.29
2023-04-18T06:18:53.425Z,10.42
2023-04-18T06:21:21.947Z,10.98
2023-04-18T06:23:49.687Z,10.89
2023-04-18T06:26:18.031Z,11.01
2023-04-18T06:28:45.959Z,11.30
2023-04-18T06:31:13.889Z,11.41
2023-04-18T06:33:43.307Z,11.77
2023-04-18T06:36:12.586Z,12.00
2023-04-18T06:38:40.461Z,12.03
2023-04-18T06:41:09.856Z,12.12
2023-04-18T06:43:37.674Z,12.33
2023-04-18T06:46:06.610Z,12.77
2023-04-18T06:48:34.660Z,12.62
2023-04-18T06:51:02.608Z,12.97
2023-04-18T06:53:31.780Z,13.01
2023-04-18T06:55:59.664Z,13.38
2023-04-18T06:58:27.615Z,13.46
2023-04-18T07:00:55.421Z,13.35
2023-04-18T07:03:23.391Z,13.51
2023-04-18T07:05:51.462Z,13.85
2023-04-18T07:08:19.352Z,13.88
2023-04-18T07:10:48.432Z,14.00
2023-04-18T07:13:16.353Z,14.29
2023-04-18T07:15:44.273Z,14.53
2023-04-18T07:18:16.052Z,14.56
2023-04-18T07:20:45.881Z,14.53
2023-04-18T07:23:13.697Z,14.74
2023-04-18T07:25:41.672Z,14.99
2023-04-18T07:28:10.820Z,15.16
2023-04-18T07:30:40.972Z,15.40
2023-04-18T07:33:09.010Z,15.31
2023-04-18T07:35:37.066Z,15.65
2023-04-18T07:38:04.851Z,15.87
2023-04-18T07:40:32.663Z,15.77
2023-04-18T07:43:00.495Z,15.73
2023-04-18T07:45:29.747Z,16.05
2023-04-18T07:47:57.665Z,16.09
2023-04-18T07:50:26.938Z,16.43
2023-04-18T07:52:54.760Z,17.06
2023-04-18T07:55:22.751Z,16.85
2023-04-18T07:57:50.616Z,16.78
2023-04-18T08:00:18.999Z,16.40
2023-04-18T08:02:48.306Z,15.97
2023-04-18T08:05:16.405Z,16.01
2023-04-18T08:07:44.332Z,16.14
2023-04-18T08:10:12.648Z,16.20
2023-04-18T08:12:40.684Z,16.47
2023-04-18T08:15:09.867Z,16.96
2023-04-18T08:17:38.952Z,17.38
2023-04-18T08:20:09.007Z,17.46
2023-04-18T08:22:46.780Z,17.57
2023-04-18T08:25:24.817Z,17.86
2023-04-18T08:27:52.617Z,17.63
2023-04-18T08:30:21.290Z,17.94
2023-04-18T08:32:49.795Z,17.81
2023-04-18T08:35:19.044Z,18.11
2023-04-18T08:37:46.850Z,18.39
2023-04-18T08:43:32.412Z,18.44
2023-04-18T08:46:01.805Z,18.20
2023-04-18T08:48:29.681Z,18.27
2023-04-18T08:51:00.191Z,18.51
2023-04-18T08:53:28.623Z,19.27
2023-04-18T08:55:58.034Z,19.28
2023-04-18T08:58:27.499Z,19.66
2023-04-18T09:00:56.325Z,20.06
2023-04-18T09:03:39.676Z,20.96
2023-04-18T09:06:10.370Z,20.91
2023-04-18T09:08:38.287Z,21.24
2023-04-18T09:11:22.827Z,20.70
2023-04-18T09:13:50.661Z,19.85
2023-04-18T09:16:19.538Z,20.29
2023-04-18T09:19:13.268Z,21.14
2023-04-18T09:21:46.247Z,21.52
2023-04-18T09:24:20.770Z,22.64
2023-04-18T09:26:50.758Z,22.62
2023-04-18T09:29:22.499Z,23.38
2023-04-18T09:31:57.313Z,24.33
2023-04-18T09:34:26.669Z,23.51
2023-04-18T09:37:11.101Z,23.79
2023-04-18T09:39:40.185Z,23.83
2023-04-18T09:42:10.481Z,23.71
2023-04-18T09:44:39.345Z,24.00
2023-04-18T09:47:07.428Z,24.60
2023-04-18T09:49:35.260Z,25.12
2023-04-18T09:52:08.817Z,26.16
2023-04-18T09:54:40.073Z,26.38
2023-04-18T09:57:12.134Z,26.88
2023-04-18T09:59:47.581Z,25.73
2023-04-18T10:02:21.032Z,24.83
2023-04-18T10:04:50.853Z,23.97
2023-04-18T10:07:21.426Z,22.71
2023-04-18T10:09:50.457Z,20.94
2023-04-18T10:12:19.414Z,20.20
2023-04-18T10:14:47.690Z,20.12
2023-04-18T10:17:16.152Z,20.45
2023-04-18T10:19:46.082Z,22.08
2023-04-18T10:22:14.072Z,23.27
2023-04-18T10:24:56.913Z,23.42
2023-04-18T10:27:59.640Z,24.91
2023-04-18T10:30:51.021Z,25.66
2023-04-18T10:33:31.825Z,25.47
2023-04-18T10:36:03.835Z,26.07
2023-04-18T10:38:32.442Z,26.25
2023-04-18T10:41:23.730Z,26.99
2023-04-18T10:44:23.728Z,25.95
2023-04-18T10:47:21.751Z,27.26
2023-04-18T10:50:06.239Z,27.64
2023-04-18T10:52:35.597Z,27.04
2023-04-18T10:55:11.324Z,27.58
2023-04-18T10:57:45.239Z,27.84
2023-04-18T11:00:15.313Z,27.14
2023-04-18T11:02:52.092Z,27.50
2023-04-18T11:05:22.151Z,26.96
2023-04-18T11:07:50.281Z,27.45
2023-04-18T11:10:20.078Z,27.97
2023-04-18T11:12:49.597Z,29.22
2023-04-18T11:15:21.896Z,29.16
2023-04-18T11:17:58.220Z,28.11
2023-04-18T11:20:26.666Z,26.90
2023-04-18T11:22:55.803Z,25.93
2023-04-18T11:25:26.014Z,26.34
2023-04-18T11:27:56.218Z,25.28
2023-04-18T11:30:24.109Z,23.87
2023-04-18T11:32:52.422Z,22.72
2023-04-18T11:35:21.150Z,23.25
2023-04-18T11:37:51.202Z,24.64
2023-04-18T11:40:21.465Z,25.29
2023-04-18T11:42:49.227Z,26.97
2023-04-18T11:45:18.327Z,26.76
2023-04-18T11:47:48.154Z,26.37
2023-04-18T11:50:16.018Z,24.69
2023-04-18T11:52:43.856Z,25.04
2023-04-18T11:55:14.176Z,26.23
2023-04-18T11:57:42.614Z,26.42
2023-04-18T12:00:12.402Z,26.24
2023-04-18T12:02:43.814Z,27.08
2023-04-18T12:05:14.618Z,26.84
2023-04-18T12:07:45.916Z,27.52
2023-04-18T12:10:25.535Z,27.55
2023-04-18T12:12:55.136Z,28.19
2023-04-18T12:15:27.313Z,28.35
2023-04-18T12:18:01.218Z,28.13
2023-04-18T12:20:36.449Z,28.85
2023-04-18T12:23:04.819Z,28.21
2023-04-18T12:25:32.706Z,27.28
2023-04-18T12:28:01.830Z,28.01
2023-04-18T12:30:31.189Z,27.31
2023-04-18T12:33:02.125Z,27.00
2023-04-18T12:35:31.650Z,27.26
2023-04-18T12:38:01.692Z,26.49
2023-04-18T12:40:30.846Z,27.60
2023-04-18T12:42:58.750Z,27.62
2023-04-18T12:45:26.677Z,27.50
2023-04-18T12:47:54.581Z,27.46
2023-04-18T12:50:25.826Z,27.82
2023-04-18T12:52:54.525Z,27.91
2023-04-18T12:55:22.695Z,28.31
2023-04-18T12:57:52.067Z,26.91
2023-04-18T13:00:19.898Z,26.77
2023-04-18T13:02:48.195Z,26.80
2023-04-18T13:05:18.601Z,27.15
2023-04-18T13:07:49.362Z,26.55
2023-04-18T13:10:19.348Z,27.53
2023-04-18T13:12:47.589Z,27.97
2023-04-18T13:15:15.901Z,28.16
2023-04-18T13:17:44.384Z,27.60
2023-04-18T13:20:13.618Z,27.83
2023-04-18T13:22:42.755Z,27.61
2023-04-18T13:25:12.589Z,28.60
2023-04-18T13:27:42.064Z,27.46
2023-04-18T13:30:11.920Z,27.28
2023-04-18T13:32:40.565Z,27.15
2023-04-18T13:35:11.216Z,25.98
2023-04-18T13:37:40.681Z,26.16
2023-04-18T13:40:09.544Z,26.33
2023-04-18T13:42:39.850Z,26.31
2023-04-18T13:45:08.362Z,26.90
2023-04-18T13:47:36.637Z,26.54
2023-04-18T13:50:04.762Z,26.62
2023-04-18T13:52:32.703Z,27.05
2023-04-18T13:55:01.017Z,26.52
2023-04-18T13:57:32.042Z,26.33
2023-04-18T14:00:01.325Z,26.73
2023-04-18T14:02:29.378Z,26.22
2023-04-18T14:04:58.341Z,26.64
2023-04-18T14:07:26.397Z,27.51
2023-04-18T14:09:54.666Z,27.80
2023-04-18T14:12:23.044Z,27.98
2023-04-18T14:14:50.981Z,27.63
2023-04-18T14:17:20.178Z,27.27
2023-04-18T14:19:48.661Z,27.41
2023-04-18T14:22:16.674Z,27.07
2023-04-18T14:24:44.497Z,25.94
2023-04-18T14:27:12.343Z,25.68
2023-04-18T14:29:40.078Z,25.91
2023-04-18T14:32:08.030Z,25.94
2023-04-18T14:34:38.838Z,26.06
2023-04-18T14:37:07.909Z,26.47
2023-04-18T14:39:35.929Z,26.13
2023-04-18T14:42:03.795Z,25.25
2023-04-18T14:44:31.790Z,25.27
2023-04-18T14:46:59.584Z,25.28
2023-04-18T14:49:27.519Z,25.53
2023-04-18T14:51:56.770Z,25.46
2023-04-18T14:54:24.863Z,25.14
2023-04-18T14:56:52.755Z,24.40
2023-04-18T14:59:20.749Z,24.60
2023-04-18T15:01:48.836Z,24.09
2023-04-18T15:04:17.054Z,24.37
2023-04-18T15:06:45.184Z,25.18
2023-04-18T15:09:15.362Z,25.19
2023-04-18T15:11:43.162Z,23.99
2023-04-18T15:14:11.182Z,23.44
2023-04-18T15:16:40.814Z,23.72
2023-04-18T15:19:08.744Z,24.21
2023-04-18T15:21:36.479Z,24.73
2023-04-18T15:24:04.588Z,24.14
2023-04-18T15:26:33.694Z,23.60
2023-04-18T15:29:03.780Z,22.71
2023-04-18T15:31:32.545Z,22.37
2023-04-18T15:34:00.856Z,21.40
2023-04-18T15:36:29.305Z,20.33
2023-04-18T15:38:58.274Z,19.55
2023-04-18T15:41:26.213Z,19.50
2023-04-18T15:43:55.449Z,19.41
2023-04-18T15:46:23.383Z,18.85
2023-04-18T15:48:51.315Z,19.10
2023-04-18T15:51:19.405Z,19.59
2023-04-18T15:53:47.326Z,19.68
2023-04-18T15:56:15.085Z,20.05
2023-04-18T15:58:42.882Z,19.91
2023-04-18T16:01:13.223Z,19.06
2023-04-18T16:03:41.207Z,18.50
2023-04-18T16:06:10.576Z,18.30
2023-04-18T16:08:38.460Z,18.70
2023-04-18T16:11:06.476Z,18.05
2023-04-18T16:13:38.225Z,16.83
2023-04-18T16:16:07.056Z,15.85
2023-04-18T16:18:36.203Z,14.62
2023-04-18T16:21:04.060Z,14.17
2023-04-18T16:23:32.465Z,13.92
2023-04-18T16:26:00.361Z,13.74
2023-04-18T16:28:29.189Z,13.35
2023-04-18T16:30:57.156Z,12.91
2023-04-18T16:33:26.879Z,12.53
2023-04-18T16:35:58.622Z,12.13
2023-04-18T16:38:27.555Z,11.84
2023-04-18T16:40:57.077Z,11.48
2023-04-18T16:43:26.980Z,11.33
2023-04-18T16:45:56.400Z,11.29
2023-04-18T16:48:24.770Z,11.21
2023-04-18T16:50:52.592Z,11.03
2023-04-18T16:53:22.678Z,11.05
2023-04-18T16:55:52.228Z,10.97
2023-04-18T16:58:20.181Z,10.87
2023-04-18T17:00:48.750Z,10.80
2023-04-18T17:03:17.004Z,10.78
2023-04-18T17:05:45.020Z,10.70
2023-04-18T17:08:12.886Z,10.57
2023-04-18T17:10:42.533Z,10.41
2023-04-18T17:13:10.376Z,10.22
2023-04-18T17:15:38.353Z,10.16
2023-04-18T17:18:06.492Z,10.13
2023-04-18T17:20:36.048Z,10.02
2023-04-18T17:23:03.855Z,9.92
2023-04-18T17:25:31.864Z,9.81
2023-04-18T17:28:03.425Z,9.71
2023-04-18T17:30:31.582Z,9.62
2023-04-18T17:32:59.381Z,9.58
2023-04-18T17:35:27.235Z,9.47
2023-04-18T17:37:55.247Z,9.38
2023-04-18T17:40:27.359Z,9.26
2023-04-18T17:42:55.177Z,9.15
2023-04-18T17:45:27.668Z,8.97
2023-04-18T17:47:57.655Z,8.90
2023-04-18T17:50:25.507Z,8.76
2023-04-18T17:52:53.360Z,8.73
2023-04-18T17:55:21.215Z,8.69
2023-04-18T17:57:49.005Z,8.65
2023-04-18T18:00:17.570Z,8.56
2023-04-18T18:02:47.027Z,8.51
2023-04-18T18:05:16.306Z,8.49
2023-04-18T18:07:47.493Z,8.32
2023-04-18T18:10:18.994Z,8.22
2023-04-18T18:12:46.877Z,8.01
2023-04-18T18:15:15.138Z,7.90
2023-04-18T18:17:43.090Z,7.72
2023-04-18T18:20:12.839Z,7.60
2023-04-18T18:22:40.696Z,7.56
2023-04-18T18:25:09.070Z,7.55
2023-04-18T18:27:37.280Z,7.49
2023-04-18T18:30:06.097Z,7.38
2023-04-18T18:32:33.918Z,7.34
2023-04-18T18:35:02.635Z,7.17
2023-04-18T18:37:32.170Z,7.23
2023-04-18T18:40:00.304Z,7.18
2023-04-18T18:42:28.182Z,7.06
2023-04-18T18:44:56.358Z,6.94
2023-04-18T18:47:27.755Z,6.85
2023-04-18T18:49:55.664Z,6.72
2023-04-18T18:52:25.065Z,6.65
2023-04-18T18:54:54.629Z,6.56
2023-04-18T18:57:22.560Z,6.39
2023-04-18T18:59:50.549Z,6.44
2023-04-18T19:02:18.715Z,6.31
2023-04-18T19:04:46.897Z,6.37
2023-04-18T19:07:15.052Z,6.24
2023-04-18T19:09:43.030Z,6.19
2023-04-18T19:12:12.239Z,6.20
2023-04-18T19:14:42.261Z,6.17
2023-04-18T19:17:10.230Z,5.96
2023-04-18T19:19:38.129Z,5.82
2023-04-18T19:22:06.814Z,5.68
2023-04-18T19:24:35.073Z,5.55
2023-04-18T19:27:03.444Z,5.57
2023-04-18T19:29:33.027Z,5.47
2023-04-18T19:32:01.204Z,5.46
2023-04-18T19:34:29.205Z,5.43
2023-04-18T19:36:57.093Z,5.41
2023-04-18T19:39:25.078Z,5.32
2023-04-18T19:41:53.107Z,5.34
2023-04-18T19:44:20.877Z,5.22
2023-04-18T19:46:50.084Z,5.24
2023-04-18T19:49:18.044Z,5.20
2023-04-18T19:51:45.839Z,5.25
2023-04-18T19:54:14.104Z,5.15
2023-04-18T19:56:41.853Z,5.04
2023-04-18T19:59:09.648Z,4.94
2023-04-18T20:01:37.676Z,4.82
2023-04-18T20:04:08.553Z,4.90
2023-04-18T20:06:36.429Z,4.86
2023-04-18T20:09:04.638Z,4.82
2023-04-18T20:11:32.510Z,4.78
2023-04-18T20:14:00.654Z,4.68
2023-04-18T20:16:31.761Z,4.59
2023-04-18T20:18:59.690Z,4.58
2023-04-18T20:21:28.791Z,4.48
2023-04-18T20:23:57.595Z,4.42
2023-04-18T20:26:25.655Z,4.42
2023-04-18T20:28:53.414Z,4.40
2023-04-18T20:31:21.332Z,4.33
2023-04-18T20:33:49.378Z,4.24
2023-04-18T20:36:18.470Z,4.13
2023-04-18T20:38:50.389Z,4.08
2023-04-18T20:41:20.753Z,4.03
2023-04-18T20:43:48.558Z,3.96
2023-04-18T20:46:16.570Z,3.97
2023-04-18T20:48:44.949Z,3.97
2023-04-18T20:51:12.830Z,3.99
2023-04-18T20:53:40.669Z,3.99
2023-04-18T20:56:10.004Z,3.96
2023-04-18T20:58:37.725Z,3.84
2023-04-18T21:01:05.598Z,3.83
2023-04-18T21:03:33.696Z,3.80
2023-04-18T21:06:02.090Z,3.78
2023-04-18T21:08:29.949Z,3.71
2023-04-18T21:10:57.701Z,3.58
2023-04-18T21:13:26.842Z,3.48
2023-04-18T21:15:57.090Z,3.49
2023-04-18T21:18:25.276Z,3.42
2023-04-18T21:20:53.206Z,3.30
2023-04-18T21:23:21.028Z,3.29
2023-04-18T21:25:48.771Z,3.19
2023-04-18T21:28:16.627Z,3.22
2023-04-18T21:30:46.616Z,3.25
2023-04-18T21:33:14.735Z,3.20
2023-04-18T21:35:42.964Z,3.11
2023-04-18T21:38:11.127Z,3.17
2023-04-18T21:40:38.996Z,3.10
2023-04-18T21:43:06.932Z,3.05
2023-04-18T21:45:34.818Z,2.98
2023-04-18T21:48:04.206Z,2.94
2023-04-18T21:50:31.995Z,2.86
2023-04-18T21:52:59.826Z,2.93
2023-04-18T21:55:27.737Z,2.92
2023-04-18T21:57:56.058Z,2.89
2023-04-18T22:00:23.919Z,2.79
2023-04-18T22:02:51.714Z,2.70
2023-04-18T22:05:21.358Z,2.70
2023-04-18T22:07:57.543Z,2.63
2023-04-18T22:10:26.258Z,2.60
2023-04-18T22:12:54.596Z,2.53
2023-04-18T22:15:22.579Z,2.58
2023-04-18T22:17:50.595Z,2.54
2023-04-18T22:20:18.483Z,2.50
2023-04-18T22:22:47.718Z,2.38
2023-04-18T22:25:15.614Z,2.33
2023-04-18T22:27:45.053Z,2.30
2023-04-18T22:30:14.399Z,2.28
2023-04-18T22:32:42.355Z,2.23
2023-04-18T22:35:10.889Z,2.27
2023-04-18T22:37:38.680Z,2.36
2023-04-18T22:40:09.770Z,2.35
2023-04-18T22:42:38.714Z,2.33
2023-04-18T22:45:08.003Z,2.16
2023-04-18T22:47:35.843Z,2.18
2023-04-18T22:50:03.733Z,2.17
2023-04-18T22:52:31.608Z,2.10
2023-04-18T22:54:59.412Z,2.15
2023-04-18T22:57:28.619Z,2.07
2023-04-18T22:59:56.464Z,1.94
2023-04-18T23:02:24.692Z,2.01
2023-04-18T23:04:53.369Z,1.96
2023-04-18T23:07:21.175Z,1.86
2023-04-18T23:09:48.986Z,1.77
2023-04-18T23:12:16.871Z,1.88
2023-04-18T23:14:46.077Z,1.81
2023-04-18T23:17:13.924Z,1.76
2023-04-18T23:19:41.633Z,1.72
2023-04-18T23:22:09.528Z,1.73
2023-04-18T23:24:37.287Z,1.80
2023-04-18T23:27:05.218Z,1.80
2023-04-18T23:29:36.924Z,1.73
2023-04-18T23:32:06.429Z,1.71
2023-04-18T23:34:34.352Z,1.75
2023-04-18T23:37:02.189Z,1.70
2023-04-18T23:39:30.127Z,1.57
2023-04-18T23:41:58.244Z,1.57
2023-04-18T23:44:26.004Z,1.55
2023-04-18T23:46:53.848Z,1.52
2023-04-18T23:49:23.216Z,1.44
2023-04-18T23:51:51.068Z,1.36
2023-04-18T23:54:19.008Z,1.30
2023-04-18T23:56:46.852Z,1.28
2023-04-18T23:59:14.673Z,1.24
